createdAt,value
2023-05-15T00:02:12.328Z,7.40
2023-05-15T00:04:41.098Z,7.78
2023-05-15T00:07:10.895Z,7.00
2023-05-15T00:09:39.202Z,6.65
2023-05-15T00:12:08.661Z,7.45
2023-05-15T00:14:36.908Z,6.00
2023-05-15T01:02:29.984Z,6.65
2023-05-15T01:04:58.396Z,6.13
2023-05-15T01:07:26.951Z,5.75
2023-05-15T01:09:56.714Z,6.57
2023-05-15T01:12:26.971Z,5.95
2023-05-15T01:14:55.659Z,6.10
2023-05-15T01:46:24.941Z,5.53
2023-05-15T01:48:54.548Z,5.63
2023-05-15T01:51:24.951Z,5.40
2023-05-15T01:53:54.500Z,5.82
2023-05-15T01:56:24.145Z,5.03
2023-05-15T01:58:54.798Z,5.22
2023-05-15T02:46:48.460Z,4.82
2023-05-15T02:49:17.879Z,5.40
2023-05-15T02:51:47.966Z,5.03
2023-05-15T02:54:17.460Z,4.82
2023-05-15T02:56:45.743Z,5.45
2023-05-15T02:59:19.641Z,5.47
2023-05-15T03:46:09.197Z,4.75
2023-05-15T03:48:37.597Z,5.05
2023-05-15T03:51:07.725Z,5.25
2023-05-15T03:53:36.169Z,4.78
2023-05-15T03:56:04.642Z,5.18
2023-05-15T03:58:33.066Z,4.93
2023-05-15T04:46:26.563Z,4.22
2023-05-15T04:48:54.959Z,4.03
2023-05-15T04:51:23.280Z,4.80
2023-05-15T04:53:51.643Z,4.45
2023-05-15T04:56:19.952Z,4.38
2023-05-15T04:58:48.279Z,4.45
2023-05-15T05:01:16.660Z,5.25
2023-05-15T05:03:46.467Z,5.30
2023-05-15T05:06:14.865Z,5.40
2023-05-15T05:08:43.305Z,5.55
2023-05-15T05:11:11.653Z,5.30
2023-05-15T05:13:39.973Z,5.32
2023-05-15T05:16:08.945Z,5.45
2023-05-15T05:18:37.387Z,5.30
2023-05-15T05:21:07.736Z,5.40
2023-05-15T05:23:36.188Z,5.90
2023-05-15T05:26:06.222Z,5.78
2023-05-15T05:28:34.797Z,5.78
2023-05-15T05:31:03.184Z,5.93
2023-05-15T05:33:31.591Z,6.25
2023-05-15T05:35:59.956Z,5.90
2023-05-15T05:38:29.733Z,6.18
2023-05-15T05:40:58.111Z,6.18
2023-05-15T05:43:27.613Z,6.25
2023-05-15T05:45:56.099Z,5.95
2023-05-15T05:48:24.463Z,6.43
2023-05-15T05:50:52.779Z,6.25
2023-05-15T05:53:21.074Z,5.82
2023-05-15T05:55:50.813Z,5.53
2023-05-15T05:58:25.679Z,5.85
2023-05-15T06:00:54.992Z,6.15
2023-05-15T06:03:24.024Z,5.57
2023-05-15T06:05:52.892Z,5.35
2023-05-15T06:08:21.486Z,5.53
2023-05-15T06:10:51.170Z,5.72
2023-05-15T06:13:19.738Z,5.40
2023-05-15T06:15:48.114Z,5.63
2023-05-15T06:18:16.520Z,5.32
2023-05-15T06:20:44.876Z,4.97
2023-05-15T06:23:13.226Z,5.25
2023-05-15T06:25:41.655Z,5.15
2023-05-15T06:28:11.375Z,5.43
2023-05-15T06:30:39.830Z,5.20
2023-05-15T06:33:08.348Z,5.40
2023-05-15T06:35:36.886Z,4.90
2023-05-15T06:38:05.280Z,4.85
2023-05-15T06:40:33.750Z,5.50
2023-05-15T06:43:02.121Z,4.63
2023-05-15T06:45:31.843Z,5.07
2023-05-15T06:48:01.874Z,4.95
2023-05-15T06:50:30.540Z,4.97
2023-05-15T06:52:59.344Z,5.40
2023-05-15T06:55:27.935Z,5.22
2023-05-15T06:57:56.362Z,4.53
2023-05-15T07:00:24.709Z,5.00
2023-05-15T07:02:54.518Z,4.78
2023-05-15T07:05:23.366Z,4.75
2023-05-15T07:07:52.035Z,4.93
2023-05-15T07:10:20.565Z,4.53
2023-05-15T07:12:49.018Z,4.43
2023-05-15T07:15:17.852Z,4.80
2023-05-15T07:17:46.373Z,4.88
2023-05-15T07:20:16.103Z,4.90
2023-05-15T07:22:54.851Z,4.32
2023-05-15T07:25:24.125Z,4.50
2023-05-15T07:27:52.906Z,4.70
2023-05-15T07:30:21.243Z,4.63
2023-05-15T07:32:49.789Z,4.50
2023-05-15T07:35:19.635Z,4.30
2023-05-15T07:37:47.961Z,4.40
2023-05-15T07:40:16.556Z,4.68
2023-05-15T07:42:45.845Z,4.28
2023-05-15T07:45:14.596Z,4.68
2023-05-15T07:47:47.447Z,4.20
2023-05-15T07:50:16.855Z,4.50
2023-05-15T07:52:46.531Z,4.50
2023-05-15T07:55:14.881Z,4.30
2023-05-15T07:57:43.329Z,4.40
2023-05-15T08:00:13.725Z,4.40
2023-05-15T08:02:46.237Z,4.18
2023-05-15T08:05:14.775Z,4.47
2023-05-15T08:07:43.211Z,4.57
2023-05-15T08:10:13.539Z,4.10
2023-05-15T08:12:46.163Z,4.43
2023-05-15T08:15:14.952Z,4.10
2023-05-15T08:17:43.411Z,4.43
2023-05-15T08:20:13.319Z,4.50
2023-05-15T08:22:41.680Z,4.40
2023-05-15T08:25:12.225Z,4.40
2023-05-15T08:27:40.572Z,4.15
2023-05-15T08:30:10.439Z,4.00
2023-05-15T08:32:38.842Z,3.90
2023-05-15T08:35:08.957Z,4.15
2023-05-15T08:37:37.300Z,3.97
2023-05-15T08:40:07.924Z,3.50
2023-05-15T08:42:45.756Z,4.18
2023-05-15T08:45:15.151Z,4.03
2023-05-15T08:47:44.543Z,3.95
2023-05-15T08:50:15.384Z,4.05
2023-05-15T08:52:46.853Z,4.07
2023-05-15T08:55:16.263Z,4.15
2023-05-15T08:57:46.836Z,3.72
2023-05-15T09:00:16.818Z,3.80
2023-05-15T09:02:45.352Z,3.88
2023-05-15T09:05:13.666Z,3.97
2023-05-15T09:07:44.838Z,3.83
2023-05-15T09:10:14.169Z,4.07
2023-05-15T09:12:45.809Z,4.10
2023-05-15T09:15:17.633Z,3.90
2023-05-15T09:17:46.750Z,3.92
2023-05-15T09:20:28.439Z,4.10
2023-05-15T09:22:57.474Z,3.65
2023-05-15T09:25:38.584Z,3.78
2023-05-15T09:28:10.572Z,3.60
2023-05-15T09:30:40.240Z,3.53
2023-05-15T09:33:10.150Z,3.70
2023-05-15T09:35:41.689Z,3.55
2023-05-15T09:38:12.778Z,3.67
2023-05-15T09:40:41.808Z,3.38
2023-05-15T09:43:13.149Z,3.40
2023-05-15T09:45:41.532Z,3.90
2023-05-15T09:48:11.990Z,3.70
2023-05-15T09:50:42.415Z,3.70
2023-05-15T09:53:14.145Z,3.75
2023-05-15T09:55:44.093Z,3.45
2023-05-15T09:58:15.771Z,3.80
2023-05-15T10:00:48.051Z,3.80
2023-05-15T10:03:19.962Z,3.80
2023-05-15T10:05:48.600Z,3.63
2023-05-15T10:08:27.202Z,3.58
2023-05-15T10:10:56.862Z,4.20
2023-05-15T10:13:27.085Z,3.70
2023-05-15T10:15:56.372Z,3.17
2023-05-15T10:18:26.203Z,3.30
2023-05-15T10:20:54.642Z,3.20
2023-05-15T10:23:24.211Z,3.60
2023-05-15T10:26:03.217Z,3.78
2023-05-15T10:28:34.980Z,3.03
2023-05-15T10:31:04.352Z,3.40
2023-05-15T10:33:34.112Z,3.42
2023-05-15T10:36:04.618Z,3.17
2023-05-15T10:38:35.460Z,2.88
2023-05-15T10:41:16.473Z,3.10
2023-05-15T10:43:47.770Z,3.15
2023-05-15T10:46:17.308Z,3.17
2023-05-15T10:48:45.813Z,2.90
2023-05-15T10:51:18.459Z,2.88
2023-05-15T10:53:47.349Z,3.10
2023-05-15T10:56:17.560Z,3.30
2023-05-15T10:58:49.585Z,3.28
2023-05-15T11:01:32.067Z,3.28
2023-05-15T11:04:09.561Z,3.30
2023-05-15T11:06:39.716Z,3.30
2023-05-15T11:09:39.493Z,3.08
2023-05-15T11:12:11.693Z,3.33
2023-05-15T11:14:44.220Z,3.10
2023-05-15T11:17:15.307Z,3.03
2023-05-15T11:20:01.099Z,3.40
2023-05-15T11:22:35.892Z,3.00
2023-05-15T11:25:08.766Z,3.10
2023-05-15T11:27:42.042Z,2.90
2023-05-15T11:30:18.115Z,3.03
2023-05-15T11:33:03.033Z,3.40
2023-05-15T11:35:34.583Z,3.38
2023-05-15T11:38:06.039Z,3.25
2023-05-15T11:40:46.672Z,3.05
2023-05-15T11:43:23.276Z,3.03
2023-05-15T11:45:56.125Z,3.17
2023-05-15T11:48:26.440Z,2.92
2023-05-15T11:50:54.824Z,2.92
2023-05-15T11:53:24.154Z,2.80
2023-05-15T11:55:54.727Z,2.90
2023-05-15T11:58:25.400Z,2.80
2023-05-15T12:00:55.466Z,2.97
2023-05-15T12:03:26.690Z,2.33
2023-05-15T12:05:59.457Z,2.90
2023-05-15T12:08:33.556Z,2.63
2023-05-15T12:11:02.871Z,2.80
2023-05-15T12:13:32.580Z,2.75
2023-05-15T12:16:03.540Z,3.10
2023-05-15T12:18:33.112Z,2.88
2023-05-15T12:21:01.945Z,2.72
2023-05-15T12:23:30.288Z,2.72
2023-05-15T12:26:02.400Z,2.88
2023-05-15T12:28:33.545Z,3.13
2023-05-15T12:31:04.013Z,2.90
2023-05-15T12:33:32.501Z,2.92
2023-05-15T12:36:01.788Z,2.67
2023-05-15T12:38:31.082Z,2.97
2023-05-15T12:40:59.674Z,2.95
2023-05-15T12:43:28.482Z,2.80
2023-05-15T12:45:57.868Z,2.70
2023-05-15T12:48:32.903Z,2.92
2023-05-15T12:51:08.040Z,2.65
2023-05-15T12:53:39.320Z,2.80
2023-05-15T12:56:08.899Z,2.80
2023-05-15T12:58:38.341Z,2.85
2023-05-15T13:01:06.970Z,3.38
2023-05-15T13:03:37.376Z,2.72
2023-05-15T13:06:08.041Z,2.60
2023-05-15T13:08:42.559Z,2.65
2023-05-15T13:11:14.323Z,2.40
2023-05-15T13:13:47.816Z,2.65
2023-05-15T13:16:24.870Z,2.60
2023-05-15T13:18:54.951Z,2.50
2023-05-15T13:21:23.307Z,2.63
2023-05-15T13:23:52.835Z,2.70
2023-05-15T13:26:21.740Z,2.42
2023-05-15T13:28:50.146Z,2.70
2023-05-15T13:31:18.665Z,2.35
2023-05-15T13:33:47.087Z,2.53
2023-05-15T13:36:16.876Z,2.90
2023-05-15T13:38:45.381Z,2.50
2023-05-15T13:41:13.827Z,2.53
2023-05-15T13:43:42.324Z,2.85
2023-05-15T13:46:10.794Z,2.50
2023-05-15T13:48:39.238Z,2.75
2023-05-15T13:51:07.645Z,2.38
2023-05-15T13:53:37.398Z,2.33
2023-05-15T13:56:06.940Z,2.72
2023-05-15T13:58:35.424Z,2.60
2023-05-15T14:01:08.030Z,2.65
2023-05-15T14:03:36.829Z,2.63
2023-05-15T14:06:06.216Z,2.65
2023-05-15T14:08:36.213Z,2.83
2023-05-15T14:11:04.678Z,2.40
2023-05-15T14:13:34.662Z,2.60
2023-05-15T14:16:03.302Z,2.70
2023-05-15T14:18:32.240Z,2.60
2023-05-15T14:21:00.694Z,3.25
2023-05-15T14:23:29.170Z,3.03
2023-05-15T14:25:58.921Z,2.70
2023-05-15T14:28:27.185Z,2.50
2023-05-15T14:30:55.594Z,2.53
2023-05-15T14:33:24.087Z,2.60
2023-05-15T14:35:52.597Z,2.80
2023-05-15T14:38:21.349Z,2.50
2023-05-15T14:40:49.979Z,2.50
2023-05-15T14:43:19.877Z,2.80
2023-05-15T14:45:48.335Z,2.63
2023-05-15T14:48:16.646Z,2.50
2023-05-15T14:50:45.702Z,2.63
2023-05-15T14:53:14.076Z,2.60
2023-05-15T14:55:42.528Z,2.60
2023-05-15T14:58:11.698Z,2.28
2023-05-15T15:00:41.523Z,2.60
2023-05-15T15:03:11.461Z,2.50
2023-05-15T15:05:39.852Z,2.30
2023-05-15T15:08:10.887Z,2.60
2023-05-15T15:10:40.930Z,2.63
2023-05-15T15:13:11.655Z,2.53
2023-05-15T15:15:41.835Z,2.60
2023-05-15T15:18:10.315Z,2.70
2023-05-15T15:20:38.839Z,2.92
2023-05-15T15:23:07.156Z,2.38
2023-05-15T15:25:35.668Z,2.20
2023-05-15T15:31:15.415Z,2.28
2023-05-15T15:33:43.774Z,2.35
2023-05-15T15:36:12.091Z,2.33
2023-05-15T15:38:41.852Z,2.45
2023-05-15T15:41:10.255Z,2.20
2023-05-15T15:43:38.591Z,2.10
2023-05-15T15:46:07.037Z,2.30
2023-05-15T15:48:36.941Z,2.38
2023-05-15T15:51:06.247Z,2.08
2023-05-15T15:53:34.870Z,2.47
2023-05-15T16:04:45.681Z,2.30
2023-05-15T16:07:14.002Z,2.20
2023-05-15T16:09:42.474Z,2.28
2023-05-15T16:12:10.758Z,2.30
2023-05-15T16:14:39.352Z,2.10
2023-05-15T16:17:07.705Z,2.25
2023-05-15T16:19:36.049Z,2.33
2023-05-15T16:22:06.124Z,2.40
2023-05-15T16:24:35.746Z,2.50
2023-05-15T16:27:04.461Z,2.13
2023-05-15T16:29:32.821Z,2.03
2023-05-15T16:32:01.236Z,2.08
2023-05-15T16:34:29.550Z,1.83
2023-05-15T16:36:57.834Z,2.05
2023-05-15T16:39:29.506Z,2.30
2023-05-15T16:41:57.857Z,2.13
2023-05-15T16:44:26.148Z,1.92
2023-05-15T16:46:54.428Z,2.22
2023-05-15T16:49:23.096Z,2.20
2023-05-15T16:51:51.426Z,2.10
2023-05-15T16:54:19.722Z,1.90
2023-05-15T16:56:49.430Z,1.98
2023-05-15T16:59:17.756Z,2.00
2023-05-15T17:01:46.079Z,2.03
2023-05-15T17:04:14.381Z,2.13
2023-05-15T17:06:42.744Z,2.03
2023-05-15T17:09:11.025Z,2.00
2023-05-15T17:11:39.299Z,2.30
2023-05-15T17:14:08.975Z,2.15
2023-05-15T17:16:37.320Z,2.15
2023-05-15T17:19:05.715Z,2.45
2023-05-15T17:21:34.451Z,2.47
2023-05-15T17:24:02.827Z,2.30
2023-05-15T17:26:31.065Z,2.70
2023-05-15T17:28:59.382Z,3.47
2023-05-15T17:31:29.401Z,3.42
2023-05-15T17:33:57.787Z,3.05
2023-05-15T17:36:26.112Z,3.40
2023-05-15T17:38:54.622Z,3.38
2023-05-15T17:41:22.874Z,4.10
2023-05-15T17:43:51.186Z,3.83
2023-05-15T17:46:19.551Z,4.70
2023-05-15T17:48:49.119Z,10.30
2023-05-15T17:51:17.432Z,9.82
2023-05-15T17:53:45.762Z,9.82
2023-05-15T17:56:14.079Z,10.60
2023-05-15T17:58:42.381Z,12.75
2023-05-15T18:01:10.838Z,13.73
2023-05-15T18:03:41.671Z,15.48
2023-05-15T18:06:13.429Z,17.27
2023-05-15T18:08:41.849Z,18.75
2023-05-15T18:11:21.412Z,21.13
2023-05-15T18:13:50.948Z,21.70
2023-05-15T18:16:19.291Z,24.33
2023-05-15T18:18:49.245Z,25.05
2023-05-15T18:21:19.634Z,25.75
2023-05-15T18:23:47.943Z,28.92
2023-05-15T18:26:16.325Z,29.65
2023-05-15T18:28:44.705Z,31.08
2023-05-15T18:31:13.035Z,31.52
2023-05-15T18:33:43.016Z,33.63
2023-05-15T18:36:11.373Z,34.13
2023-05-15T18:38:41.068Z,35.63
2023-05-15T18:41:09.397Z,37.15
2023-05-15T18:43:37.759Z,39.08
2023-05-15T18:46:08.570Z,38.97
2023-05-15T18:48:38.201Z,40.38
2023-05-15T18:51:08.212Z,42.35
2023-05-15T18:53:37.631Z,43.47
2023-05-15T18:56:07.496Z,45.45
2023-05-15T18:58:36.441Z,45.75
2023-05-15T19:01:04.813Z,46.38
2023-05-15T19:03:34.211Z,47.97
2023-05-15T19:06:02.625Z,48.20
2023-05-15T19:08:30.927Z,45.65
2023-05-15T19:11:01.316Z,45.58
2023-05-15T19:13:32.888Z,29.52
2023-05-15T19:16:03.167Z,19.30
2023-05-15T19:18:31.464Z,16.70
2023-05-15T19:21:01.229Z,16.77
2023-05-15T19:23:30.478Z,17.35
2023-05-15T19:25:58.900Z,19.10
2023-05-15T19:28:27.290Z,22.90
2023-05-15T19:30:57.005Z,26.25
2023-05-15T19:33:25.552Z,23.17
2023-05-15T19:35:53.864Z,20.20
2023-05-15T19:38:22.363Z,18.92
2023-05-15T19:40:50.725Z,18.20
2023-05-15T19:43:19.110Z,16.20
2023-05-15T19:45:47.510Z,15.95
2023-05-15T19:48:17.304Z,14.05
2023-05-15T19:50:46.950Z,13.32
2023-05-15T19:53:15.209Z,14.10
2023-05-15T19:55:43.482Z,13.27
2023-05-15T19:58:11.997Z,12.77
2023-05-15T20:00:41.128Z,12.18
2023-05-15T20:03:09.664Z,12.55
2023-05-15T20:05:42.138Z,12.50
2023-05-15T20:08:10.430Z,12.10
2023-05-15T20:10:38.814Z,11.38
2023-05-15T20:13:07.278Z,11.73
2023-05-15T20:15:39.770Z,10.80
2023-05-15T20:18:08.584Z,10.65
2023-05-15T20:20:37.107Z,9.82
2023-05-15T20:23:07.312Z,9.65
2023-05-15T20:25:35.931Z,9.50
2023-05-15T20:28:05.302Z,9.43
2023-05-15T20:30:34.068Z,8.98
2023-05-15T20:33:02.424Z,8.55
2023-05-15T20:35:31.095Z,8.85
2023-05-15T20:37:59.469Z,8.48
2023-05-15T20:40:29.388Z,7.93
2023-05-15T20:42:57.770Z,7.93
2023-05-15T20:45:26.991Z,7.47
2023-05-15T20:47:55.309Z,7.15
2023-05-15T20:50:23.701Z,7.18
2023-05-15T20:52:52.293Z,6.78
2023-05-15T20:55:21.609Z,6.72
2023-05-15T20:57:51.688Z,7.32
2023-05-15T21:00:20.313Z,6.88
2023-05-15T21:02:48.741Z,7.28
2023-05-15T21:05:17.087Z,7.18
2023-05-15T21:07:45.489Z,6.28
2023-05-15T21:10:13.849Z,6.75
2023-05-15T21:12:42.202Z,6.53
2023-05-15T21:15:12.794Z,6.60
2023-05-15T21:17:41.461Z,6.40
2023-05-15T21:20:11.215Z,7.15
2023-05-15T21:22:39.902Z,6.80
2023-05-15T21:25:09.571Z,6.47
2023-05-15T21:27:37.978Z,6.63
2023-05-15T21:30:07.934Z,7.00
2023-05-15T21:32:37.628Z,6.53
2023-05-15T21:35:06.866Z,6.75
2023-05-15T21:37:35.197Z,6.80
2023-05-15T21:40:03.629Z,6.57
2023-05-15T21:42:32.471Z,6.72
2023-05-15T21:45:01.039Z,6.53
2023-05-15T21:47:29.395Z,6.32
2023-05-15T21:49:59.028Z,6.82
2023-05-15T21:52:27.306Z,6.35
2023-05-15T21:54:55.909Z,6.47
2023-05-15T21:57:24.203Z,5.85
2023-05-15T21:59:52.469Z,6.20
2023-05-15T22:02:20.870Z,6.28
2023-05-15T22:04:49.339Z,6.65
2023-05-15T22:07:19.484Z,6.85
2023-05-15T22:09:48.005Z,5.53
2023-05-15T22:12:16.435Z,6.45
2023-05-15T22:14:57.561Z,6.60
2023-05-15T22:17:30.288Z,6.68
2023-05-15T22:20:07.312Z,6.30
2023-05-15T22:22:38.729Z,6.20
2023-05-15T22:25:08.531Z,6.55
2023-05-15T22:27:37.082Z,6.40
2023-05-15T22:30:06.946Z,6.60
2023-05-15T22:32:35.306Z,6.15
2023-05-15T22:35:04.275Z,6.10
2023-05-15T22:37:32.523Z,6.22
2023-05-15T22:40:02.412Z,6.15
2023-05-15T22:42:30.700Z,5.93
2023-05-15T22:44:58.995Z,6.00
2023-05-15T22:47:29.102Z,5.60
2023-05-15T22:49:57.685Z,5.93
2023-05-15T22:52:26.307Z,5.75
2023-05-15T22:54:54.625Z,6.20
2023-05-15T22:57:24.447Z,6.15
2023-05-15T22:59:52.712Z,6.10
2023-05-15T23:17:02.018Z,5.97
2023-05-15T23:19:30.375Z,6.30
2023-05-15T23:21:58.676Z,6.00
2023-05-15T23:24:26.903Z,5.85
2023-05-15T23:26:55.260Z,6.40
2023-05-15T23:29:23.527Z,5.93
